Time;durP1;ratioP1;P1;durP2;ratioP2;P2;SDS_P1;SDS_P2;PMS_P1;PMS_P2;Temp;Humidity;BMP_temperature;BMP_pressure;BME280_temperature;BME280_humidity;BME280_pressure;Samples;Min_cycle;Max_cycle;Signal;HPM_P1;HPM_P2
2023/09/10 00:01:07;;;;;;;19.53;13.03;;;21.40;99.90;;;;;;5056427;28;21054;-59
2023/09/10 00:03:34;;;;;;;16.40;13.53;;;21.40;99.90;;;;;;5056303;28;21010;-61
2023/09/10 00:06:02;;;;;;;17.50;12.20;;;21.40;99.90;;;;;;5056649;28;20456;-60
2023/09/10 00:08:29;;;;;;;20.10;12.90;;;21.30;99.90;;;;;;5057321;28;20820;-59
2023/09/10 00:10:56;;;;;;;14.77;13.17;;;21.30;99.90;;;;;;5056198;28;20538;-59
2023/09/10 00:13:25;;;;;;;19.73;14.77;;;21.30;99.90;;;;;;5056492;28;20530;-59
2023/09/10 00:15:52;;;;;;;16.23;11.53;;;21.20;99.90;;;;;;5056393;28;20463;-61
2023/09/10 00:18:19;;;;;;;18.10;13.90;;;21.20;99.90;;;;;;5056329;28;20439;-59
2023/09/10 00:20:46;;;;;;;15.30;11.90;;;21.20;99.90;;;;;;5056126;28;20592;-60
2023/09/10 00:23:14;;;;;;;15.20;13.43;;;21.20;99.90;;;;;;5055960;28;20485;-59
2023/09/10 00:25:41;;;;;;;17.20;12.00;;;21.20;99.90;;;;;;5055933;28;20546;-59
2023/09/10 00:28:08;;;;;;;16.00;12.50;;;21.20;99.90;;;;;;5055813;28;20501;-60
2023/09/10 00:30:37;;;;;;;15.83;13.37;;;21.10;99.90;;;;;;5055883;28;20782;-61
2023/09/10 00:33:04;;;;;;;13.67;12.27;;;21.10;99.90;;;;;;5056899;28;20506;-59
2023/09/10 00:35:31;;;;;;;16.73;12.50;;;21.10;99.90;;;;;;5055691;28;20915;-60
2023/09/10 00:37:58;;;;;;;18.37;13.93;;;21.00;99.90;;;;;;5056053;28;20581;-58
2023/09/10 00:40:24;;;;;;;17.30;14.33;;;21.00;99.90;;;;;;5056008;28;20443;-59
2023/09/10 00:42:53;;;;;;;19.90;13.87;;;21.00;99.90;;;;;;5055860;28;20517;-60
2023/09/10 00:45:20;;;;;;;16.67;13.60;;;21.00;99.90;;;;;;5055918;28;20513;-58
2023/09/10 00:47:49;;;;;;;15.20;11.40;;;20.90;99.90;;;;;;5077204;28;20478;-52
2023/09/10 00:50:16;;;;;;;14.83;12.33;;;20.90;99.90;;;;;;5079849;28;20414;-55
2023/09/10 00:52:48;;;;;;;18.83;14.03;;;20.90;99.90;;;;;;5070434;28;20486;-59
2023/09/10 00:55:16;;;;;;;16.20;13.60;;;20.90;99.90;;;;;;5069314;28;20486;-59
2023/09/10 00:57:44;;;;;;;15.00;12.47;;;20.80;99.90;;;;;;5070474;28;20865;-60
2023/09/10 01:00:12;;;;;;;16.70;13.73;;;20.80;99.90;;;;;;5069625;28;20419;-59
2023/09/10 01:02:43;;;;;;;16.27;12.87;;;20.80;99.90;;;;;;5064351;28;20471;-59
2023/09/10 01:05:12;;;;;;;18.90;13.07;;;20.80;99.90;;;;;;5058425;28;20470;-60
2023/09/10 01:07:39;;;;;;;14.60;13.07;;;20.70;99.90;;;;;;5057449;28;20761;-60
2023/09/10 01:10:08;;;;;;;20.40;13.80;;;20.70;99.90;;;;;;5055469;28;20516;-57
2023/09/10 01:12:43;;;;;;;15.60;14.00;;;20.70;99.90;;;;;;5055150;28;20482;-58
2023/09/10 01:15:15;;;;;;;14.70;13.07;;;20.60;99.90;;;;;;5055066;28;20502;-59
2023/09/10 01:17:53;;;;;;;15.93;11.60;;;20.60;99.90;;;;;;5055528;28;20518;-58
2023/09/10 01:20:49;;;;;;;15.20;12.70;;;20.50;99.90;;;;;;5056759;28;20511;-59
2023/09/10 01:23:23;;;;;;;14.67;13.13;;;20.50;99.90;;;;;;5056602;28;20491;-59
2023/09/10 01:25:51;;;;;;;18.13;13.60;;;20.50;99.90;;;;;;5057765;28;20506;-59
2023/09/10 01:28:18;;;;;;;15.73;12.87;;;20.50;99.90;;;;;;5059760;28;20569;-58
2023/09/10 01:30:45;;;;;;;16.40;13.20;;;20.50;99.90;;;;;;5058707;28;20474;-60
2023/09/10 01:33:20;;;;;;;18.10;12.73;;;20.40;99.90;;;;;;5055677;28;20550;-58
2023/09/10 01:35:54;;;;;;;17.20;14.80;;;20.40;99.90;;;;;;5072723;28;20522;-60
2023/09/10 01:38:27;;;;;;;17.47;15.37;;;20.40;99.90;;;;;;5054918;28;20507;-58
2023/09/10 01:41:03;;;;;;;19.27;14.07;;;20.40;99.90;;;;;;5055724;28;20455;-58
2023/09/10 01:43:32;;;;;;;18.60;14.60;;;20.40;99.90;;;;;;5074435;28;21026;-58
2023/09/10 01:45:59;;;;;;;17.30;14.53;;;20.40;99.90;;;;;;5054951;28;20463;-59
2023/09/10 01:48:28;;;;;;;17.23;13.93;;;20.30;99.90;;;;;;5068522;28;20482;-54
2023/09/10 01:50:55;;;;;;;22.40;13.23;;;20.30;99.90;;;;;;5063445;28;20430;-59
2023/09/10 01:53:22;;;;;;;18.60;13.40;;;20.20;99.90;;;;;;5054357;28;21022;-59
2023/09/10 01:55:49;;;;;;;15.40;12.40;;;20.10;99.90;;;;;;5054499;28;20516;-59
2023/09/10 01:58:17;;;;;;;16.80;13.50;;;20.10;99.90;;;;;;5054818;28;20482;-59
2023/09/10 02:00:45;;;;;;;16.23;13.87;;;20.00;99.90;;;;;;5054705;28;20439;-60
2023/09/10 02:03:11;;;;;;;16.37;14.70;;;19.90;99.90;;;;;;5054588;28;20479;-60
2023/09/10 02:05:38;;;;;;;21.87;13.53;;;19.80;99.90;;;;;;5059890;28;20534;-59
2023/09/10 02:08:06;;;;;;;16.43;13.90;;;19.80;99.90;;;;;;5062398;28;20535;-59
2023/09/10 02:10:33;;;;;;;13.80;12.33;;;19.80;99.90;;;;;;5063440;28;20500;-60
2023/09/10 02:13:00;;;;;;;19.20;15.30;;;19.70;99.90;;;;;;5064911;28;20833;-58
2023/09/10 02:15:29;;;;;;;17.70;14.23;;;19.60;99.90;;;;;;5061199;28;20481;-58
2023/09/10 02:17:56;;;;;;;18.67;14.87;;;19.60;99.90;;;;;;5063609;28;20538;-59
2023/09/10 02:20:23;;;;;;;16.87;13.47;;;19.50;99.90;;;;;;5062621;28;20529;-59
2023/09/10 02:22:50;;;;;;;18.67;14.00;;;19.50;99.90;;;;;;5062039;28;20569;-59
2023/09/10 02:25:17;;;;;;;19.60;14.43;;;19.50;99.90;;;;;;5063473;28;20532;-59
2023/09/10 02:27:44;;;;;;;17.37;14.33;;;19.50;99.90;;;;;;5068854;28;20498;-59
2023/09/10 02:30:11;;;;;;;15.80;13.00;;;19.40;99.90;;;;;;5068415;28;20521;-60
2023/09/10 02:32:39;;;;;;;17.23;13.90;;;19.50;99.90;;;;;;5065438;28;20498;-59
2023/09/10 02:35:07;;;;;;;15.77;13.60;;;19.50;99.90;;;;;;5065610;28;20495;-60
2023/09/10 02:37:34;;;;;;;20.63;15.53;;;19.40;99.90;;;;;;5065302;28;20526;-59
2023/09/10 02:40:00;;;;;;;18.77;13.90;;;19.40;99.90;;;;;;5065794;28;20558;-60
2023/09/10 02:42:27;;;;;;;18.67;15.73;;;19.40;99.90;;;;;;5066635;28;20538;-60
2023/09/10 02:44:54;;;;;;;17.40;13.80;;;19.40;99.90;;;;;;5063954;28;20506;-59
2023/09/10 02:47:21;;;;;;;18.80;15.37;;;19.40;99.90;;;;;;5062359;28;20518;-60
2023/09/10 02:49:49;;;;;;;16.77;14.10;;;19.40;99.90;;;;;;5062154;28;20466;-59
2023/09/10 02:52:16;;;;;;;16.17;13.87;;;19.40;99.90;;;;;;5062771;28;20526;-58
2023/09/10 02:54:43;;;;;;;21.67;14.57;;;19.30;99.90;;;;;;5062888;28;20539;-58
2023/09/10 02:57:10;;;;;;;18.47;13.80;;;19.30;99.90;;;;;;5064038;28;20467;-60
2023/09/10 02:59:36;;;;;;;18.83;14.50;;;19.30;99.90;;;;;;5065706;28;20535;-58
2023/09/10 03:02:03;;;;;;;19.77;15.63;;;19.30;99.90;;;;;;5065616;28;20499;-60
2023/09/10 03:04:30;;;;;;;25.60;14.40;;;19.30;99.90;;;;;;5065015;28;20526;-57
2023/09/10 03:07:01;;;;;;;14.57;13.10;;;19.30;99.90;;;;;;5063775;28;20513;-58
2023/09/10 03:09:28;;;;;;;21.50;14.57;;;19.30;99.90;;;;;;5065297;28;20868;-58
2023/09/10 03:12:24;;;;;;;17.50;14.90;;;19.30;99.90;;;;;;5072096;28;20491;-59
2023/09/10 03:14:51;;;;;;;18.80;15.97;;;19.30;99.90;;;;;;5061127;28;20497;-57
2023/09/10 03:17:19;;;;;;;25.97;14.77;;;19.30;99.90;;;;;;5058207;28;20494;-60
2023/09/10 03:19:48;;;;;;;19.50;15.23;;;19.30;99.90;;;;;;5058426;28;20467;-57
2023/09/10 03:22:16;;;;;;;17.30;14.50;;;19.30;99.90;;;;;;5057471;28;20471;-59
2023/09/10 03:24:43;;;;;;;20.30;14.50;;;19.30;99.90;;;;;;5059317;28;20489;-61
2023/09/10 03:27:10;;;;;;;18.60;14.93;;;19.40;99.90;;;;;;5061303;28;20561;-60
2023/09/10 03:29:37;;;;;;;14.03;12.57;;;19.40;99.90;;;;;;5060210;28;20526;-59
2023/09/10 03:32:06;;;;;;;16.30;12.60;;;19.40;99.90;;;;;;5061833;28;20471;-60
2023/09/10 03:34:33;;;;;;;16.33;14.13;;;19.40;99.90;;;;;;5058620;28;20817;-58
2023/09/10 03:37:00;;;;;;;16.53;13.87;;;19.40;99.90;;;;;;5058996;28;20439;-59
2023/09/10 03:39:28;;;;;;;16.00;12.73;;;19.40;99.90;;;;;;5057300;28;20467;-59
2023/09/10 03:41:55;;;;;;;18.20;13.23;;;19.30;99.90;;;;;;5057156;28;20506;-60
2023/09/10 03:44:22;;;;;;;16.20;13.97;;;19.40;99.90;;;;;;5058359;28;20443;-60
2023/09/10 03:46:49;;;;;;;22.10;12.67;;;19.30;99.90;;;;;;5056791;28;21030;-60
2023/09/10 03:49:16;;;;;;;21.00;13.97;;;19.30;99.90;;;;;;5056722;28;20499;-59
2023/09/10 03:51:42;;;;;;;18.03;14.10;;;19.30;99.90;;;;;;5056896;28;20470;-59
2023/09/10 03:54:11;;;;;;;17.97;13.50;;;19.30;99.90;;;;;;5058087;28;20439;-59
2023/09/10 03:56:40;;;;;;;19.63;13.93;;;19.30;99.90;;;;;;5059885;28;20914;-59
2023/09/10 03:59:07;;;;;;;17.10;13.37;;;19.30;99.90;;;;;;5062272;28;20482;-58
2023/09/10 04:01:34;;;;;;;15.40;13.23;;;19.20;99.90;;;;;;5062975;28;20499;-60
2023/09/10 04:04:01;;;;;;;14.80;12.70;;;19.20;99.90;;;;;;5061654;28;20501;-60
2023/09/10 04:06:28;;;;;;;21.70;13.17;;;19.20;99.90;;;;;;5060662;28;20951;-50
2023/09/10 04:08:55;;;;;;;27.83;14.33;;;19.10;99.90;;;;;;5080765;28;20400;-53
2023/09/10 04:11:22;;;;;;;14.83;12.10;;;19.10;99.90;;;;;;5080641;28;20436;-55
2023/09/10 04:13:50;;;;;;;32.97;15.23;;;19.00;99.90;;;;;;5079691;28;20428;-57
2023/09/10 04:16:20;;;;;;;18.63;14.63;;;19.00;99.90;;;;;;5078320;28;20448;-58
2023/09/10 04:18:47;;;;;;;18.40;13.53;;;18.90;99.90;;;;;;5077352;28;20436;-57
2023/09/10 04:21:16;;;;;;;16.33;13.07;;;18.90;99.90;;;;;;5076711;28;20463;-59
2023/09/10 04:23:43;;;;;;;14.83;13.30;;;19.00;99.90;;;;;;5075845;28;20462;-53
2023/09/10 04:26:12;;;;;;;19.90;14.20;;;18.70;99.90;;;;;;5075722;28;20497;-56
2023/09/10 04:28:39;;;;;;;17.07;12.93;;;18.60;99.90;;;;;;5058861;28;20427;-59
2023/09/10 04:31:13;;;;;;;15.40;13.23;;;18.50;99.90;;;;;;5062889;28;20481;-58
2023/09/10 04:33:40;;;;;;;19.13;15.23;;;18.50;99.90;;;;;;5061518;28;20483;-59
2023/09/10 04:36:07;;;;;;;18.77;12.63;;;18.40;99.90;;;;;;5060787;28;20503;-58
2023/09/10 04:38:34;;;;;;;15.70;13.93;;;18.40;99.90;;;;;;5064813;28;20439;-52
2023/09/10 04:41:00;;;;;;;18.77;14.30;;;18.40;99.90;;;;;;5080077;28;20419;-53
2023/09/10 04:43:27;;;;;;;17.70;14.07;;;18.40;99.90;;;;;;5077649;28;20467;-59
2023/09/10 04:45:54;;;;;;;17.87;14.47;;;18.40;99.90;;;;;;5060851;28;20474;-59
2023/09/10 04:48:22;;;;;;;18.40;14.33;;;18.40;99.90;;;;;;5059595;28;20846;-59
2023/09/10 04:50:49;;;;;;;19.63;14.07;;;18.30;99.90;;;;;;5059424;28;20440;-59
2023/09/10 04:53:18;;;;;;;17.53;14.23;;;18.30;99.90;;;;;;5059229;28;20443;-59
2023/09/10 04:55:44;;;;;;;20.47;15.03;;;18.30;99.90;;;;;;5057943;28;20584;-59
2023/09/10 04:58:12;;;;;;;15.07;13.20;;;18.30;99.90;;;;;;5058155;28;20514;-59
2023/09/10 05:00:40;;;;;;;17.33;13.67;;;18.30;99.90;;;;;;5059817;28;20443;-57
2023/09/10 05:03:07;;;;;;;18.17;14.10;;;18.30;99.90;;;;;;5059244;28;20483;-59
2023/09/10 05:05:36;;;;;;;15.87;14.20;;;18.30;99.90;;;;;;5059299;28;20482;-58
2023/09/10 05:08:03;;;;;;;25.23;15.50;;;18.30;99.90;;;;;;5060601;28;20518;-60
2023/09/10 05:10:30;;;;;;;17.80;14.50;;;18.30;99.90;;;;;;5063550;28;20443;-61
2023/09/10 05:12:57;;;;;;;16.77;14.50;;;18.30;99.90;;;;;;5059700;28;20529;-60
2023/09/10 05:15:24;;;;;;;20.80;14.30;;;18.30;99.90;;;;;;5055113;28;20490;-60
2023/09/10 05:17:51;;;;;;;18.23;14.07;;;18.30;99.90;;;;;;5056621;28;21052;-60
2023/09/10 05:20:18;;;;;;;17.20;13.60;;;18.30;99.90;;;;;;5058247;28;20445;-58
2023/09/10 05:22:46;;;;;;;18.67;14.70;;;18.30;99.90;;;;;;5058160;28;20578;-59
2023/09/10 05:25:13;;;;;;;17.57;13.60;;;18.30;99.90;;;;;;5058597;28;20933;-60
2023/09/10 05:27:40;;;;;;;17.93;13.97;;;18.30;99.90;;;;;;5058481;28;20546;-59
2023/09/10 05:30:07;;;;;;;14.67;12.57;;;18.30;99.90;;;;;;5059519;28;20444;-59
2023/09/10 05:32:34;;;;;;;24.20;14.67;;;18.30;99.90;;;;;;5058772;28;20467;-60
2023/09/10 05:35:01;;;;;;;15.53;13.57;;;18.30;99.90;;;;;;5059115;28;20510;-60
2023/09/10 05:37:28;;;;;;;14.93;13.13;;;18.40;99.90;;;;;;5058404;28;20466;-60
2023/09/10 05:39:56;;;;;;;15.60;13.17;;;18.40;99.90;;;;;;5053958;28;20899;-59
2023/09/10 05:42:23;;;;;;;15.10;13.37;;;18.50;99.90;;;;;;5054739;28;20514;-59
2023/09/10 05:44:52;;;;;;;17.50;13.70;;;18.50;99.90;;;;;;5054886;28;20942;-59
2023/09/10 05:47:20;;;;;;;19.13;13.93;;;18.50;99.90;;;;;;5054410;28;20467;-58
2023/09/10 05:49:47;;;;;;;15.90;14.23;;;18.60;99.90;;;;;;5054786;28;20450;-60
2023/09/10 05:52:14;;;;;;;15.87;12.90;;;18.70;99.90;;;;;;5054601;28;20526;-60
2023/09/10 05:54:41;;;;;;;17.90;13.87;;;18.70;99.90;;;;;;5057554;28;20450;-60
2023/09/10 05:57:09;;;;;;;15.13;13.07;;;18.80;99.90;;;;;;5055352;28;20872;-59
2023/09/10 05:59:36;;;;;;;16.47;13.60;;;18.80;99.90;;;;;;5078709;28;20427;-52
2023/09/10 06:02:03;;;;;;;14.87;13.23;;;18.90;99.90;;;;;;5078706;28;20407;-51
2023/09/10 06:04:32;;;;;;;15.83;12.43;;;18.90;99.90;;;;;;5074507;28;20474;-59
2023/09/10 06:07:03;;;;;;;18.10;14.37;;;19.00;99.90;;;;;;5072282;28;20457;-58
2023/09/10 06:09:30;;;;;;;14.47;12.90;;;19.00;99.90;;;;;;5063370;28;20467;-61
2023/09/10 06:11:57;;;;;;;16.77;13.50;;;19.00;99.90;;;;;;5054303;28;20530;-59
2023/09/10 06:14:26;;;;;;;15.30;13.00;;;19.10;99.90;;;;;;5054720;28;20473;-59
2023/09/10 06:16:52;;;;;;;14.63;12.80;;;19.10;99.90;;;;;;5054679;28;20522;-60
2023/09/10 06:19:19;;;;;;;14.90;13.40;;;19.10;99.90;;;;;;5077875;28;20472;-59
2023/09/10 06:21:46;;;;;;;15.53;12.07;;;19.20;99.90;;;;;;5064694;28;20454;-60
2023/09/10 06:24:13;;;;;;;17.00;12.10;;;19.30;99.90;;;;;;5054459;28;20579;-56
2023/09/10 06:26:40;;;;;;;18.27;14.97;;;19.30;99.90;;;;;;5064782;28;20470;-50
2023/09/10 06:29:07;;;;;;;14.40;12.30;;;19.40;99.90;;;;;;5072231;28;20498;-60
2023/09/10 06:31:35;;;;;;;16.00;13.27;;;19.40;99.90;;;;;;5065963;28;20427;-50
2023/09/10 06:34:06;;;;;;;15.30;12.87;;;19.50;99.90;;;;;;5078319;28;20438;-47
2023/09/10 06:36:33;;;;;;;14.80;13.20;;;19.60;99.90;;;;;;5058743;28;20444;-60
2023/09/10 06:39:00;;;;;;;17.03;12.33;;;19.70;99.90;;;;;;5054244;28;20558;-59
2023/09/10 06:41:26;;;;;;;17.00;14.10;;;19.70;99.90;;;;;;5054153;28;20825;-59
2023/09/10 06:43:56;;;;;;;15.43;13.87;;;19.80;99.90;;;;;;5073498;28;20475;-56
2023/09/10 06:46:23;;;;;;;15.97;13.57;;;19.90;99.90;;;;;;5077338;28;20428;-59
2023/09/10 06:48:51;;;;;;;15.33;13.50;;;19.90;99.90;;;;;;5072605;28;20482;-59
2023/09/10 06:51:20;;;;;;;17.23;13.87;;;20.00;99.90;;;;;;5079340;28;20431;-52
2023/09/10 06:53:47;;;;;;;16.33;13.50;;;20.10;99.90;;;;;;5081955;28;20474;-55
2023/09/10 06:56:14;;;;;;;16.03;13.13;;;20.20;99.90;;;;;;5081462;28;20435;-57
2023/09/10 06:58:44;;;;;;;15.93;12.80;;;20.30;99.90;;;;;;5079553;28;20466;-58
2023/09/10 07:01:12;;;;;;;16.10;12.73;;;20.40;99.90;;;;;;5079016;28;20465;-58
2023/09/10 07:03:39;;;;;;;15.10;12.90;;;20.50;99.90;;;;;;5077666;28;20495;-57
2023/09/10 07:06:07;;;;;;;16.20;13.40;;;20.60;99.90;;;;;;5074013;28;20752;-59
2023/09/10 07:08:36;;;;;;;14.57;11.17;;;20.60;99.90;;;;;;5073395;28;20467;-59
2023/09/10 07:11:03;;;;;;;13.70;12.10;;;20.70;99.90;;;;;;5058843;28;20430;-60
2023/09/10 07:13:31;;;;;;;14.70;12.17;;;20.80;99.90;;;;;;5057320;28;20478;-58
2023/09/10 07:15:57;;;;;;;13.30;11.90;;;20.90;99.90;;;;;;5058090;28;20431;-59
2023/09/10 07:18:24;;;;;;;16.40;12.13;;;21.00;99.90;;;;;;5057451;28;20444;-58
2023/09/10 07:20:51;;;;;;;13.90;12.40;;;21.10;99.90;;;;;;5057820;28;20420;-59
2023/09/10 07:23:19;;;;;;;16.47;13.03;;;21.20;99.90;;;;;;5057463;28;20482;-58
2023/09/10 07:25:46;;;;;;;14.57;11.90;;;21.30;99.90;;;;;;5057922;28;20475;-59
2023/09/10 07:28:13;;;;;;;15.70;12.43;;;21.40;99.90;;;;;;5058002;28;20578;-58
2023/09/10 07:30:40;;;;;;;13.63;12.20;;;21.50;99.90;;;;;;5057062;28;20454;-59
2023/09/10 07:33:07;;;;;;;13.10;11.67;;;21.50;99.90;;;;;;5057262;28;20436;-59
2023/09/10 07:35:34;;;;;;;13.97;12.23;;;21.60;99.90;;;;;;5056983;28;20772;-59
2023/09/10 07:38:00;;;;;;;16.10;12.90;;;21.70;99.90;;;;;;5056912;28;20489;-60
2023/09/10 07:40:29;;;;;;;12.67;11.43;;;21.80;99.90;;;;;;5057296;28;20521;-60
2023/09/10 07:42:59;;;;;;;13.60;12.17;;;21.90;99.90;;;;;;5071168;28;20447;-50
2023/09/10 07:45:28;;;;;;;15.20;11.20;;;22.10;99.90;;;;;;5081061;28;20460;-54
2023/09/10 07:47:56;;;;;;;14.00;11.40;;;22.20;99.90;;;;;;5080995;28;20412;-51
2023/09/10 07:50:23;;;;;;;13.73;10.13;;;22.30;99.90;;;;;;5080999;28;20506;-49
2023/09/10 07:52:55;;;;;;;13.57;11.67;;;22.40;99.90;;;;;;5081075;28;20419;-52
2023/09/10 07:55:22;;;;;;;12.50;11.30;;;22.50;99.90;;;;;;5057713;28;20470;-60
2023/09/10 07:57:50;;;;;;;13.07;11.13;;;22.60;99.90;;;;;;5056982;28;20448;-60
2023/09/10 08:00:18;;;;;;;11.33;10.17;;;22.80;99.90;;;;;;5057092;28;20521;-59
2023/09/10 08:02:45;;;;;;;12.50;11.20;;;22.90;99.90;;;;;;5058269;28;20903;-60
2023/09/10 08:05:12;;;;;;;12.37;11.00;;;23.10;99.90;;;;;;5056800;28;20540;-60
2023/09/10 08:07:39;;;;;;;12.10;9.80;;;23.30;99.90;;;;;;5056640;28;20935;-60
2023/09/10 08:10:07;;;;;;;12.97;9.57;;;23.60;99.90;;;;;;5056677;28;20491;-60
2023/09/10 08:12:34;;;;;;;11.93;10.23;;;24.40;99.90;;;;;;5056795;28;20467;-58
2023/09/10 08:15:04;;;;;;;10.73;9.73;;;26.30;99.90;;;;;;5056397;28;20787;-59
2023/09/10 08:17:31;;;;;;;12.27;10.43;;;28.40;99.90;;;;;;5056273;28;20538;-59
2023/09/10 08:19:58;;;;;;;17.80;10.60;;;30.60;99.90;;;;;;5056668;28;20530;-60
2023/09/10 08:22:24;;;;;;;13.20;11.80;;;32.50;96.30;;;;;;5056468;28;20463;-61
2023/09/10 08:24:53;;;;;;;15.03;10.13;;;34.30;86.70;;;;;;5056994;28;20523;-60
2023/09/10 08:27:23;;;;;;;11.40;9.93;;;35.70;75.70;;;;;;5060753;28;20432;-59
2023/09/10 08:29:49;;;;;;;11.73;10.70;;;36.90;64.70;;;;;;5055952;28;20501;-63
2023/09/10 08:32:18;;;;;;;12.33;11.20;;;37.60;59.50;;;;;;5057473;28;20503;-63
2023/09/10 08:34:46;;;;;;;11.40;10.20;;;38.20;56.50;;;;;;5057319;28;20766;-63
2023/09/10 08:37:13;;;;;;;11.60;10.50;;;38.50;55.20;;;;;;5057676;28;20468;-63
2023/09/10 08:39:40;;;;;;;13.27;11.87;;;38.70;53.70;;;;;;5056153;28;20451;-63
2023/09/10 08:42:17;;;;;;;10.33;9.33;;;38.80;52.60;;;;;;5055970;28;20463;-64
2023/09/10 08:44:51;;;;;;;10.53;9.53;;;39.10;50.90;;;;;;5059095;28;20548;-62
2023/09/10 08:47:23;;;;;;;11.63;10.53;;;39.30;49.40;;;;;;5056683;28;20570;-63
2023/09/10 08:49:52;;;;;;;10.23;9.33;;;39.30;50.10;;;;;;5056355;28;20979;-63
2023/09/10 08:52:21;;;;;;;10.67;9.57;;;39.60;48.60;;;;;;5055467;28;20948;-63
2023/09/10 08:54:48;;;;;;;11.57;10.57;;;39.50;48.30;;;;;;5055455;28;20443;-63
2023/09/10 08:57:16;;;;;;;12.27;11.17;;;39.20;48.90;;;;;;5055577;28;20467;-62
2023/09/10 08:59:44;;;;;;;9.80;8.70;;;38.90;48.60;;;;;;5055379;28;20436;-63
2023/09/10 09:02:11;;;;;;;16.73;9.47;;;38.90;48.50;;;;;;5055558;28;20516;-63
2023/09/10 09:04:40;;;;;;;9.90;7.73;;;38.80;47.10;;;;;;5055152;28;20541;-62
2023/09/10 09:07:12;;;;;;;9.20;8.40;;;38.70;45.80;;;;;;5058369;28;20466;-63
2023/09/10 09:09:42;;;;;;;9.00;8.17;;;38.70;46.50;;;;;;5057252;28;20420;-63
2023/09/10 09:12:11;;;;;;;10.47;9.47;;;38.50;47.50;;;;;;5055188;28;20432;-65
2023/09/10 09:14:42;;;;;;;9.30;8.30;;;38.20;46.80;;;;;;5054137;28;21012;-62
2023/09/10 09:17:13;;;;;;;7.93;7.23;;;37.90;47.40;;;;;;5055264;28;20479;-65
2023/09/10 09:19:44;;;;;;;8.90;7.73;;;37.80;47.00;;;;;;5055642;28;20745;-63
2023/09/10 09:22:14;;;;;;;8.97;8.20;;;37.90;46.90;;;;;;5054877;28;20924;-62
2023/09/10 09:24:42;;;;;;;11.17;8.73;;;37.80;47.80;;;;;;5055103;28;20474;-62
2023/09/10 09:27:10;;;;;;;9.27;8.37;;;37.60;48.10;;;;;;5055039;28;20471;-62
2023/09/10 09:29:37;;;;;;;13.10;9.23;;;37.50;48.20;;;;;;5054752;28;20478;-63
2023/09/10 09:32:05;;;;;;;10.30;9.20;;;37.40;49.00;;;;;;5054694;28;20503;-64
2023/09/10 09:34:33;;;;;;;10.20;9.20;;;37.40;48.40;;;;;;5055085;28;20504;-64
2023/09/10 09:37:02;;;;;;;11.33;9.90;;;37.60;48.40;;;;;;5055791;28;20467;-62
2023/09/10 09:39:31;;;;;;;11.30;9.30;;;37.80;47.20;;;;;;5057262;28;20501;-63
2023/09/10 09:41:58;;;;;;;11.13;9.87;;;38.10;45.60;;;;;;5061519;28;20537;-63
2023/09/10 09:44:25;;;;;;;11.40;10.20;;;38.30;45.60;;;;;;5063322;28;20513;-62
2023/09/10 09:46:56;;;;;;;10.87;8.73;;;38.70;45.90;;;;;;5063807;28;20505;-62
2023/09/10 09:49:23;;;;;;;8.70;7.80;;;39.00;45.00;;;;;;5064410;28;20451;-63
2023/09/10 09:51:50;;;;;;;7.53;6.83;;;39.10;43.90;;;;;;5063922;28;20474;-64
2023/09/10 09:54:19;;;;;;;7.97;7.27;;;39.30;42.80;;;;;;5062712;28;20420;-60
2023/09/10 09:56:47;;;;;;;8.37;7.67;;;39.40;41.40;;;;;;5061498;28;20542;-63
2023/09/10 09:59:15;;;;;;;7.03;6.20;;;39.30;43.40;;;;;;5061376;28;20479;-65
2023/09/10 10:01:42;;;;;;;8.00;7.30;;;39.30;42.30;;;;;;5059524;28;20443;-62
2023/09/10 10:04:09;;;;;;;11.80;6.70;;;39.30;43.10;;;;;;5055505;28;20542;-63
2023/09/10 10:06:37;;;;;;;6.83;6.13;;;39.10;42.30;;;;;;5054604;28;20447;-61
2023/09/10 10:09:04;;;;;;;7.33;6.63;;;38.80;42.40;;;;;;5054184;28;20477;-63
2023/09/10 10:11:33;;;;;;;6.67;6.07;;;38.80;42.70;;;;;;5054248;28;20534;-64
2023/09/10 10:14:00;;;;;;;6.40;5.80;;;38.70;43.30;;;;;;5070587;28;20447;-53
2023/09/10 10:16:28;;;;;;;8.77;6.90;;;38.80;42.20;;;;;;5077455;28;20431;-62
2023/09/10 10:18:56;;;;;;;8.80;6.40;;;38.70;43.00;;;;;;5074761;28;20463;-60
2023/09/10 10:21:23;;;;;;;7.13;6.50;;;38.70;42.50;;;;;;5075987;28;20474;-60
2023/09/10 10:23:51;;;;;;;7.70;6.30;;;38.50;42.80;;;;;;5075756;28;20479;-62
2023/09/10 10:26:19;;;;;;;7.37;6.67;;;38.30;43.40;;;;;;5075639;28;20471;-63
2023/09/10 10:28:49;;;;;;;10.10;7.50;;;38.10;44.10;;;;;;5077353;28;20525;-61
2023/09/10 10:31:18;;;;;;;7.90;6.87;;;38.00;43.70;;;;;;5058517;28;20470;-62
2023/09/10 10:33:51;;;;;;;7.77;7.00;;;37.80;43.00;;;;;;5066586;28;20477;-61
2023/09/10 10:36:31;;;;;;;9.53;7.60;;;37.60;44.50;;;;;;5069760;28;20522;-62
2023/09/10 10:38:58;;;;;;;7.40;6.70;;;37.30;44.20;;;;;;5067179;28;20434;-64
2023/09/10 10:41:26;;;;;;;7.37;6.37;;;37.10;44.00;;;;;;5057931;28;20486;-61
2023/09/10 10:44:02;;;;;;;7.37;6.67;;;37.00;44.20;;;;;;5058069;28;20462;-60
2023/09/10 10:46:33;;;;;;;7.10;6.40;;;36.80;44.00;;;;;;5057910;28;20430;-62
2023/09/10 10:49:04;;;;;;;7.23;6.50;;;36.60;43.50;;;;;;5066480;28;20435;-55
2023/09/10 10:51:40;;;;;;;6.57;5.97;;;36.40;44.10;;;;;;5081994;28;20409;-55
2023/09/10 10:54:08;;;;;;;6.23;5.73;;;36.10;43.40;;;;;;5077977;28;20481;-63
2023/09/10 10:56:35;;;;;;;7.13;5.57;;;35.70;44.10;;;;;;5076380;28;20459;-62
2023/09/10 10:59:04;;;;;;;12.17;10.97;;;35.50;44.10;;;;;;5069823;28;20471;-65
2023/09/10 11:01:31;;;;;;;9.30;7.20;;;35.20;45.30;;;;;;5057900;28;20474;-64
2023/09/10 11:03:58;;;;;;;18.60;13.90;;;34.90;44.50;;;;;;5057680;28;20498;-61
2023/09/10 11:06:24;;;;;;;7.80;6.87;;;34.70;45.50;;;;;;5057720;28;20530;-62
2023/09/10 11:08:51;;;;;;;7.37;6.10;;;34.50;45.00;;;;;;5057358;28;20991;-62
2023/09/10 11:11:45;;;;;;;6.43;5.90;;;34.30;44.70;;;;;;5060946;28;20494;-60
2023/09/10 11:14:14;;;;;;;5.67;5.17;;;34.20;44.70;;;;;;5050440;28;20455;-62
2023/09/10 11:16:43;;;;;;;8.00;6.17;;;34.10;44.90;;;;;;5065881;28;20486;-64
2023/09/10 11:19:43;;;;;;;6.43;5.83;;;34.00;47.00;;;;;;5061969;28;20457;-63
2023/09/10 11:22:10;;;;;;;6.47;5.77;;;33.70;46.10;;;;;;5059308;28;20491;-60
2023/09/10 11:24:37;;;;;;;7.63;6.90;;;33.40;46.00;;;;;;5057014;28;20514;-65
2023/09/10 11:27:21;;;;;;;6.90;6.20;;;33.20;48.10;;;;;;5056997;28;20940;-63
2023/09/10 11:30:14;;;;;;;6.60;6.00;;;33.10;48.50;;;;;;5078569;28;20404;-56
2023/09/10 11:32:43;;;;;;;7.37;6.43;;;32.90;47.50;;;;;;5081273;28;20431;-52
2023/09/10 11:35:25;;;;;;;9.40;7.33;;;32.70;47.30;;;;;;5074157;28;20450;-62
2023/09/10 11:37:55;;;;;;;9.23;7.27;;;32.70;47.90;;;;;;5056611;28;20562;-63
2023/09/10 11:40:26;;;;;;;6.57;5.97;;;32.60;49.00;;;;;;5061792;28;20501;-61
2023/09/10 11:42:53;;;;;;;6.63;6.00;;;32.50;49.30;;;;;;5061433;28;20506;-61
2023/09/10 11:45:22;;;;;;;7.97;7.17;;;32.40;50.00;;;;;;5061810;28;20469;-63
2023/09/10 11:47:51;;;;;;;6.20;5.63;;;32.30;48.10;;;;;;5058826;28;20443;-63
2023/09/10 11:50:23;;;;;;;6.23;5.63;;;32.30;49.30;;;;;;5056586;28;20448;-61
2023/09/10 11:52:50;;;;;;;6.17;5.60;;;32.20;49.40;;;;;;5056974;28;20436;-62
2023/09/10 11:55:18;;;;;;;7.10;5.30;;;32.20;49.10;;;;;;5056540;28;20489;-62
2023/09/10 11:57:46;;;;;;;6.73;6.10;;;32.20;49.50;;;;;;5056538;28;20454;-62
2023/09/10 12:00:16;;;;;;;7.67;6.93;;;32.10;49.50;;;;;;5056407;28;20467;-62
2023/09/10 12:02:44;;;;;;;8.77;6.70;;;32.10;50.30;;;;;;5056736;28;20533;-61
2023/09/10 12:05:12;;;;;;;8.07;6.10;;;32.10;50.20;;;;;;5056450;28;20475;-62
2023/09/10 12:07:43;;;;;;;10.73;7.27;;;32.20;50.10;;;;;;5056296;28;20519;-61
2023/09/10 12:10:10;;;;;;;7.70;5.63;;;32.10;49.80;;;;;;5056350;28;20427;-62
2023/09/10 12:12:38;;;;;;;7.13;6.43;;;32.10;49.50;;;;;;5056505;28;20482;-61
2023/09/10 12:15:07;;;;;;;7.03;6.33;;;32.00;49.00;;;;;;5056484;28;20455;-63
2023/09/10 12:17:34;;;;;;;16.13;12.40;;;31.90;49.30;;;;;;5056073;28;20547;-63
2023/09/10 12:20:02;;;;;;;8.43;6.53;;;31.90;50.20;;;;;;5056107;28;20538;-62
2023/09/10 12:22:30;;;;;;;9.97;6.73;;;31.90;50.50;;;;;;5055977;28;20467;-62
2023/09/10 12:24:56;;;;;;;5.70;5.10;;;31.90;50.30;;;;;;5055870;28;20505;-62
2023/09/10 12:27:23;;;;;;;7.60;5.80;;;31.90;50.30;;;;;;5056410;28;20479;-61
2023/09/10 12:29:50;;;;;;;8.77;7.73;;;31.90;49.30;;;;;;5040396;28;20462;-61
2023/09/10 12:32:17;;;;;;;6.73;6.10;;;32.00;49.90;;;;;;5056412;28;20470;-62
2023/09/10 12:34:45;;;;;;;7.00;6.30;;;32.00;49.70;;;;;;5055750;28;20526;-62
2023/09/10 12:37:16;;;;;;;6.83;5.80;;;32.00;49.90;;;;;;5067358;28;20475;-59
2023/09/10 12:39:44;;;;;;;9.60;7.60;;;32.00;50.80;;;;;;5070120;28;20483;-62